createdAt,value
2018-09-21T00:00:40.580Z,9.37
2018-09-21T00:03:14.967Z,8.50
2018-09-21T00:05:49.644Z,8.23
2018-09-21T00:08:24.076Z,7.47
2018-09-21T00:10:58.733Z,8.63
2018-09-21T00:13:33.202Z,8.20
2018-09-21T00:16:07.661Z,8.17
2018-09-21T00:18:42.336Z,7.63
2018-09-21T00:21:17.228Z,7.47
2018-09-21T00:23:51.960Z,7.60
2018-09-21T00:26:26.448Z,8.20
2018-09-21T00:29:00.805Z,8.90
2018-09-21T00:31:35.499Z,8.17
2018-09-21T00:34:09.917Z,8.20
2018-09-21T00:36:44.180Z,8.77
2018-09-21T00:39:18.569Z,8.07
2018-09-21T00:41:53.618Z,8.17
2018-09-21T00:44:28.286Z,8.43
2018-09-21T00:47:03.252Z,8.10
2018-09-21T00:49:37.796Z,8.23
2018-09-21T00:52:12.475Z,8.20
2018-09-21T00:54:46.924Z,8.10
2018-09-21T00:57:21.820Z,8.27
2018-09-21T00:59:56.288Z,7.67
2018-09-21T01:02:30.739Z,8.00
2018-09-21T01:05:05.280Z,7.80
2018-09-21T01:07:40.000Z,7.60
2018-09-21T01:10:14.365Z,7.93
2018-09-21T01:12:49.163Z,7.67
2018-09-21T01:15:23.507Z,7.67
2018-09-21T01:17:57.963Z,8.03
2018-09-21T01:20:32.371Z,7.00
2018-09-21T01:23:06.797Z,7.33
2018-09-21T01:25:41.196Z,7.70
2018-09-21T01:28:15.500Z,7.10
2018-09-21T01:30:50.861Z,7.57
2018-09-21T01:33:25.164Z,7.40
2018-09-21T01:35:59.603Z,7.27
2018-09-21T01:38:33.930Z,7.00
2018-09-21T01:41:08.624Z,7.10
2018-09-21T01:43:42.957Z,7.43
2018-09-21T01:46:17.727Z,7.20
2018-09-21T01:48:52.132Z,7.40
2018-09-21T01:51:26.740Z,7.87
2018-09-21T01:54:01.212Z,7.30
2018-09-21T01:56:35.495Z,7.00
2018-09-21T01:59:09.982Z,6.80
2018-09-21T02:01:44.400Z,6.50
2018-09-21T02:04:19.035Z,6.70
2018-09-21T02:06:53.707Z,6.80
2018-09-21T02:09:27.985Z,6.60
2018-09-21T02:12:03.088Z,7.00
2018-09-21T02:14:37.421Z,6.97
2018-09-21T02:17:11.839Z,6.53
2018-09-21T02:19:46.670Z,6.90
2018-09-21T02:22:21.247Z,6.90
2018-09-21T02:24:55.776Z,6.47
2018-09-21T02:27:30.285Z,6.83
2018-09-21T02:30:05.371Z,6.50
2018-09-21T02:32:39.717Z,6.93
2018-09-21T02:35:14.483Z,7.10
2018-09-21T02:37:48.788Z,6.77
2018-09-21T02:40:23.709Z,6.77
2018-09-21T02:42:58.485Z,6.87
2018-09-21T02:45:32.888Z,6.73
2018-09-21T02:48:07.296Z,6.43
2018-09-21T02:50:42.924Z,6.70
2018-09-21T02:53:17.654Z,6.53
2018-09-21T02:55:51.935Z,6.50
2018-09-21T02:58:26.366Z,6.20
2018-09-21T03:01:00.810Z,6.90
2018-09-21T03:03:35.436Z,6.63
2018-09-21T03:06:10.328Z,6.90
2018-09-21T03:08:45.002Z,6.67
2018-09-21T03:11:19.888Z,6.97
2018-09-21T03:13:54.284Z,6.60
2018-09-21T03:16:29.136Z,6.83
2018-09-21T03:19:03.528Z,6.60
2018-09-21T03:21:38.917Z,6.70
2018-09-21T03:24:13.380Z,6.97
2018-09-21T03:26:47.920Z,6.33
2018-09-21T03:29:22.590Z,6.77
2018-09-21T03:31:57.668Z,7.30
2018-09-21T03:34:32.437Z,6.97
2018-09-21T03:37:07.197Z,6.87
2018-09-21T03:39:41.843Z,7.07
2018-09-21T03:42:16.474Z,7.00
2018-09-21T03:44:50.840Z,7.33
2018-09-21T03:47:25.312Z,7.37
2018-09-21T03:49:59.779Z,7.13
2018-09-21T03:52:35.387Z,7.53
2018-09-21T03:55:10.108Z,7.10
2018-09-21T03:57:44.676Z,7.87
2018-09-21T04:00:22.347Z,7.40
2018-09-21T04:02:57.535Z,7.97
2018-09-21T04:05:32.175Z,8.03
2018-09-21T04:08:07.528Z,8.00
2018-09-21T04:10:41.819Z,8.30
2018-09-21T04:13:16.400Z,8.17
2018-09-21T04:15:50.807Z,7.87
2018-09-21T04:18:25.623Z,8.37
2018-09-21T04:21:00.259Z,8.10
2018-09-21T04:23:34.734Z,7.23
2018-09-21T04:26:09.656Z,6.93
2018-09-21T04:28:44.436Z,7.37
2018-09-21T04:31:18.780Z,7.60
2018-09-21T04:33:53.260Z,7.00
2018-09-21T04:36:29.937Z,7.87
2018-09-21T04:39:07.956Z,7.93
2018-09-21T04:41:42.423Z,7.63
2018-09-21T04:44:16.693Z,7.73
2018-09-21T04:46:53.430Z,7.57
2018-09-21T04:49:27.865Z,7.70
2018-09-21T04:52:04.288Z,7.50
2018-09-21T04:54:39.412Z,7.40
2018-09-21T04:57:14.880Z,7.47
2018-09-21T04:59:49.589Z,7.10
2018-09-21T05:02:24.011Z,7.20
2018-09-21T05:04:58.388Z,7.23
2018-09-21T05:07:33.124Z,6.90
2018-09-21T05:10:08.288Z,7.60
2018-09-21T05:12:42.970Z,7.00
2018-09-21T05:15:23.584Z,7.33
2018-09-21T05:17:58.544Z,7.23
2018-09-21T05:20:32.984Z,6.50
2018-09-21T05:23:07.323Z,7.10
2018-09-21T05:25:41.787Z,7.13
2018-09-21T05:28:16.300Z,6.77
2018-09-21T05:30:51.515Z,6.90
2018-09-21T05:33:25.835Z,6.80
2018-09-21T05:36:00.600Z,6.90
2018-09-21T05:38:34.844Z,7.10
2018-09-21T05:41:09.787Z,7.00
2018-09-21T05:43:44.357Z,6.97
2018-09-21T05:46:18.774Z,6.90
2018-09-21T05:48:53.267Z,6.90
2018-09-21T05:51:27.730Z,7.00
2018-09-21T05:54:13.966Z,6.47
2018-09-21T05:56:49.264Z,6.80
2018-09-21T05:59:24.409Z,6.47
2018-09-21T06:01:59.356Z,6.37
2018-09-21T06:04:34.309Z,7.33
2018-09-21T06:07:09.184Z,7.10
2018-09-21T06:09:43.843Z,6.23
2018-09-21T06:12:18.863Z,6.60
2018-09-21T06:14:53.336Z,5.97
2018-09-21T06:17:28.047Z,5.87
2018-09-21T06:20:11.977Z,5.90
2018-09-21T06:22:45.035Z,6.17
2018-09-21T06:25:12.916Z,6.30
2018-09-21T06:27:47.389Z,5.70
2018-09-21T06:30:22.146Z,5.87
2018-09-21T06:32:57.576Z,5.77
2018-09-21T06:35:33.343Z,5.67
2018-09-21T06:38:07.740Z,6.07
2018-09-21T06:40:42.185Z,5.53
2018-09-21T06:43:17.008Z,5.37
2018-09-21T06:45:51.547Z,5.40
2018-09-21T06:48:26.773Z,5.60
2018-09-21T06:51:01.825Z,5.37
2018-09-21T06:53:36.253Z,5.90
2018-09-21T06:56:10.705Z,6.00
2018-09-21T06:58:45.568Z,5.20
2018-09-21T07:01:20.108Z,5.13
2018-09-21T07:03:55.359Z,5.03
2018-09-21T07:06:29.737Z,4.90
2018-09-21T07:09:05.655Z,4.80
2018-09-21T07:11:40.680Z,5.23
2018-09-21T07:14:15.260Z,4.80
2018-09-21T07:16:49.932Z,4.20
2018-09-21T07:19:24.440Z,4.60
2018-09-21T07:21:59.529Z,4.57
2018-09-21T07:24:34.243Z,4.50
2018-09-21T07:27:08.988Z,4.30
2018-09-21T07:29:43.639Z,4.67
2018-09-21T07:32:18.340Z,4.30
2018-09-21T07:34:52.879Z,4.13
2018-09-21T07:37:27.648Z,3.80
2018-09-21T07:40:03.233Z,4.27
2018-09-21T07:42:37.904Z,4.00
2018-09-21T07:45:12.392Z,4.00
2018-09-21T07:47:47.113Z,3.80
2018-09-21T07:50:21.657Z,3.87
2018-09-21T07:52:56.696Z,4.07
2018-09-21T07:55:31.630Z,3.60
2018-09-21T07:58:05.969Z,4.00
2018-09-21T08:00:40.434Z,3.70
2018-09-21T08:03:14.752Z,3.53
2018-09-21T08:05:49.208Z,3.53
2018-09-21T08:08:24.108Z,3.40
2018-09-21T08:10:58.468Z,3.27
2018-09-21T08:13:33.115Z,3.47
2018-09-21T08:16:08.171Z,3.50
2018-09-21T08:18:42.618Z,3.20
2018-09-21T08:21:17.372Z,3.30
2018-09-21T08:23:52.020Z,3.17
2018-09-21T08:26:26.390Z,3.13
2018-09-21T08:29:01.012Z,3.50
2018-09-21T08:31:35.708Z,3.00
2018-09-21T08:34:10.276Z,3.07
2018-09-21T08:36:44.570Z,3.10
2018-09-21T08:39:19.038Z,3.50
2018-09-21T08:41:53.463Z,3.37
2018-09-21T08:44:28.280Z,3.30
2018-09-21T08:47:02.992Z,2.80
2018-09-21T08:49:37.594Z,3.80
2018-09-21T08:52:12.103Z,3.50
2018-09-21T08:54:46.716Z,3.17
2018-09-21T08:57:21.848Z,3.30
2018-09-21T08:59:56.328Z,3.27
2018-09-21T09:02:31.153Z,3.03
2018-09-21T09:05:06.387Z,3.50
2018-09-21T09:07:40.852Z,3.37
2018-09-21T09:10:15.423Z,3.10
2018-09-21T09:12:50.012Z,3.50
2018-09-21T09:15:24.484Z,3.40
2018-09-21T09:17:59.117Z,3.67
2018-09-21T09:20:33.600Z,3.50
2018-09-21T09:23:08.860Z,3.23
2018-09-21T09:25:43.806Z,3.73
2018-09-21T09:28:18.731Z,3.50
2018-09-21T09:30:53.457Z,3.47
2018-09-21T09:33:27.788Z,4.43
2018-09-21T09:36:02.288Z,3.80
2018-09-21T09:38:36.760Z,3.60
2018-09-21T09:41:11.244Z,3.63
2018-09-21T09:43:46.371Z,3.70
2018-09-21T09:46:20.643Z,3.40
2018-09-21T09:48:55.162Z,3.50
2018-09-21T09:51:30.095Z,3.60
2018-09-21T09:54:04.728Z,3.97
2018-09-21T09:56:39.590Z,3.20
2018-09-21T09:59:14.655Z,3.70
2018-09-21T10:01:49.213Z,3.33
2018-09-21T10:04:23.779Z,3.20
2018-09-21T10:06:58.151Z,3.50
2018-09-21T10:09:32.644Z,3.37
2018-09-21T10:12:07.448Z,3.20
2018-09-21T10:14:41.905Z,3.20
2018-09-21T10:17:16.484Z,3.10
2018-09-21T10:19:51.016Z,3.07
2018-09-21T10:22:25.433Z,3.10
2018-09-21T10:24:59.885Z,2.90
2018-09-21T10:27:34.820Z,3.03
2018-09-21T10:30:09.282Z,3.30
2018-09-21T10:32:43.740Z,3.03
2018-09-21T10:35:18.042Z,2.80
2018-09-21T10:37:52.697Z,3.00
2018-09-21T10:40:27.117Z,3.10
2018-09-21T10:43:02.305Z,3.20
2018-09-21T10:45:37.560Z,3.30
2018-09-21T10:48:12.452Z,3.17
2018-09-21T10:50:47.171Z,3.30
2018-09-21T10:53:22.004Z,3.40
2018-09-21T10:55:56.867Z,3.60
2018-09-21T10:58:31.270Z,3.50
2018-09-21T11:01:06.294Z,3.40
2018-09-21T11:03:40.907Z,3.77
2018-09-21T11:06:15.896Z,3.60
2018-09-21T11:08:50.285Z,3.50
2018-09-21T11:11:24.674Z,3.60
2018-09-21T11:13:59.279Z,3.50
2018-09-21T11:16:33.886Z,3.70
2018-09-21T11:19:08.860Z,3.60
2018-09-21T11:21:43.295Z,3.67
2018-09-21T11:24:17.907Z,3.60
2018-09-21T11:26:52.531Z,3.77
2018-09-21T11:29:27.071Z,3.70
2018-09-21T11:32:01.464Z,3.57
2018-09-21T11:34:36.091Z,3.60
2018-09-21T11:37:10.676Z,3.47
2018-09-21T11:39:46.102Z,3.87
2018-09-21T11:42:21.576Z,3.60
2018-09-21T11:44:55.894Z,3.60
2018-09-21T11:47:30.569Z,3.43
2018-09-21T11:50:05.333Z,3.83
2018-09-21T11:52:39.847Z,3.73
2018-09-21T11:55:14.364Z,4.13
2018-09-21T11:57:48.969Z,3.70
2018-09-21T12:00:24.188Z,3.60
2018-09-21T12:02:59.056Z,3.90
2018-09-21T12:05:33.696Z,4.03
2018-09-21T12:08:08.515Z,3.70
2018-09-21T12:10:43.021Z,3.40
2018-09-21T12:13:17.567Z,3.80
2018-09-21T12:15:52.429Z,3.77
2018-09-21T12:18:27.072Z,3.77
2018-09-21T12:21:01.500Z,3.53
2018-09-21T12:23:35.992Z,3.60
2018-09-21T12:26:10.368Z,4.10
2018-09-21T12:28:45.044Z,3.50
2018-09-21T12:31:19.559Z,3.90
2018-09-21T12:33:54.236Z,3.77
2018-09-21T12:36:28.899Z,3.40
2018-09-21T12:39:04.984Z,3.17
2018-09-21T12:41:39.719Z,3.30
2018-09-21T12:44:15.546Z,3.73
2018-09-21T12:46:49.885Z,3.70
2018-09-21T12:49:24.334Z,3.40
2018-09-21T12:51:58.792Z,3.53
2018-09-21T12:54:33.501Z,3.50
2018-09-21T12:57:08.016Z,3.17
2018-09-21T12:59:42.721Z,3.60
2018-09-21T13:02:17.201Z,3.70
2018-09-21T13:04:51.503Z,3.50
2018-09-21T13:07:26.067Z,3.50
2018-09-21T13:10:00.392Z,3.57
2018-09-21T13:12:34.863Z,3.20
2018-09-21T13:15:09.515Z,3.90
2018-09-21T13:17:43.775Z,3.90
2018-09-21T13:20:18.468Z,3.20
2018-09-21T13:22:52.949Z,3.00
2018-09-21T13:25:27.309Z,3.43
2018-09-21T13:28:02.024Z,3.57
2018-09-21T13:30:36.653Z,3.90
2018-09-21T13:33:11.098Z,3.17
2018-09-21T13:35:45.916Z,3.00
2018-09-21T13:38:20.565Z,3.07
2018-09-21T13:40:55.916Z,2.90
2018-09-21T13:43:30.427Z,2.90
2018-09-21T13:46:05.845Z,2.80
2018-09-21T13:48:40.751Z,3.17
2018-09-21T13:51:15.420Z,3.20
2018-09-21T13:53:50.012Z,2.90
2018-09-21T13:56:24.515Z,3.10
2018-09-21T13:58:58.779Z,2.80
2018-09-21T14:01:33.469Z,3.00
2018-09-21T14:04:08.492Z,2.70
2018-09-21T14:06:42.868Z,2.67
2018-09-21T14:09:17.506Z,3.07
2018-09-21T14:11:52.014Z,3.30
2018-09-21T14:14:26.584Z,2.97
2018-09-21T14:17:01.062Z,3.00
2018-09-21T14:19:35.488Z,2.93
2018-09-21T14:22:10.005Z,2.90
2018-09-21T14:24:44.415Z,2.70
2018-09-21T14:27:18.836Z,3.50
2018-09-21T14:29:53.571Z,3.13
2018-09-21T14:32:28.124Z,3.33
2018-09-21T14:35:02.583Z,3.30
2018-09-21T14:37:37.395Z,3.33
2018-09-21T14:40:11.689Z,3.27
2018-09-21T14:42:46.233Z,3.63
2018-09-21T14:45:20.611Z,3.37
2018-09-21T14:47:55.240Z,3.40
2018-09-21T14:50:30.331Z,3.50
2018-09-21T14:53:05.358Z,3.60
2018-09-21T14:55:39.729Z,3.33
2018-09-21T14:58:14.229Z,3.40
2018-09-21T15:00:49.143Z,3.87
2018-09-21T15:03:26.594Z,3.60
2018-09-21T15:06:01.264Z,3.83
2018-09-21T15:08:35.786Z,3.60
2018-09-21T15:11:10.708Z,3.20
2018-09-21T15:13:45.353Z,3.97
2018-09-21T15:16:20.794Z,3.90
2018-09-21T15:18:55.463Z,3.37
2018-09-21T15:21:30.391Z,3.80
2018-09-21T15:24:04.941Z,3.37
2018-09-21T15:26:39.816Z,3.93
2018-09-21T15:29:14.939Z,3.60
2018-09-21T15:31:49.648Z,4.13
2018-09-21T15:34:24.644Z,3.60
2018-09-21T15:36:59.403Z,3.67
2018-09-21T15:39:33.757Z,4.00
2018-09-21T15:42:08.696Z,4.20
2018-09-21T15:44:43.387Z,4.17
2018-09-21T15:47:18.143Z,3.60
2018-09-21T15:49:52.597Z,4.17
2018-09-21T15:52:27.426Z,3.90
2018-09-21T15:55:01.786Z,3.70
2018-09-21T15:57:36.097Z,4.10
2018-09-21T16:00:10.748Z,3.77
2018-09-21T16:02:45.250Z,3.90
2018-09-21T16:05:20.279Z,4.23
2018-09-21T16:07:54.721Z,3.93
2018-09-21T16:10:29.120Z,3.90
2018-09-21T16:13:03.587Z,3.93
2018-09-21T16:15:38.327Z,4.37
2018-09-21T16:18:12.831Z,3.90
2018-09-21T16:20:47.628Z,4.40
2018-09-21T16:23:22.056Z,4.17
2018-09-21T16:25:56.569Z,4.53
2018-09-21T16:28:31.397Z,4.30
2018-09-21T16:31:05.976Z,4.20
2018-09-21T16:33:40.819Z,4.30
2018-09-21T16:36:16.926Z,4.43
2018-09-21T16:38:51.748Z,3.90
2018-09-21T16:41:26.407Z,4.43
2018-09-21T16:44:00.768Z,4.73
2018-09-21T16:46:35.823Z,4.47
2018-09-21T16:49:10.708Z,4.43
2018-09-21T16:51:45.849Z,4.37
2018-09-21T16:54:20.424Z,4.70
2018-09-21T16:56:55.093Z,4.53
2018-09-21T16:59:30.256Z,4.70
2018-09-21T17:02:04.858Z,4.73
2018-09-21T17:04:39.502Z,4.50
2018-09-21T17:07:16.949Z,4.57
2018-09-21T17:09:51.573Z,4.60
2018-09-21T17:12:26.314Z,5.43
2018-09-21T17:15:01.262Z,4.53
2018-09-21T17:17:36.095Z,5.00
2018-09-21T17:20:10.996Z,4.60
2018-09-21T17:22:45.646Z,4.70
2018-09-21T17:25:20.365Z,4.93
2018-09-21T17:27:55.016Z,4.40
2018-09-21T17:30:30.289Z,4.43
2018-09-21T17:33:05.731Z,5.20
2018-09-21T17:35:40.232Z,4.73
2018-09-21T17:38:14.749Z,4.07
2018-09-21T17:40:49.435Z,4.37
2018-09-21T17:43:23.901Z,4.20
2018-09-21T17:45:58.567Z,4.60
2018-09-21T17:48:33.244Z,4.60
2018-09-21T17:51:08.377Z,4.60
2018-09-21T17:53:43.253Z,4.57
2018-09-21T17:56:17.771Z,4.43
2018-09-21T17:58:52.903Z,4.10
2018-09-21T18:01:28.005Z,4.30
2018-09-21T18:04:03.088Z,4.63
2018-09-21T18:06:37.600Z,4.57
2018-09-21T18:09:12.177Z,4.40
2018-09-21T18:11:46.880Z,4.33
2018-09-21T18:14:21.660Z,4.40
2018-09-21T18:16:56.076Z,4.80
2018-09-21T18:19:30.816Z,4.20
2018-09-21T18:22:05.162Z,4.40
2018-09-21T18:24:40.143Z,4.33
2018-09-21T18:27:14.709Z,3.80
2018-09-21T18:29:49.408Z,4.20
2018-09-21T18:32:23.807Z,4.20
2018-09-21T18:34:58.532Z,4.10
2018-09-21T18:37:33.409Z,3.67
2018-09-21T18:40:09.016Z,4.00
2018-09-21T18:42:43.857Z,4.27
2018-09-21T18:45:18.669Z,3.90
2018-09-21T18:47:53.240Z,3.80
2018-09-21T18:50:27.876Z,3.93
2018-09-21T18:53:02.894Z,3.70
2018-09-21T18:55:38.269Z,4.00
2018-09-21T18:58:12.795Z,4.03
2018-09-21T19:00:47.766Z,4.30
2018-09-21T19:03:24.295Z,4.27
2018-09-21T19:05:58.752Z,4.57
2018-09-21T19:08:33.231Z,4.27
2018-09-21T19:11:08.067Z,4.80
2018-09-21T19:13:42.662Z,3.63
2018-09-21T19:16:16.983Z,2.90
2018-09-21T19:18:51.929Z,2.93
2018-09-21T19:21:28.338Z,2.50
2018-09-21T19:24:03.105Z,2.50
2018-09-21T19:26:37.510Z,2.80
2018-09-21T19:29:12.407Z,2.53
2018-09-21T19:31:47.188Z,2.93
2018-09-21T19:34:21.624Z,2.70
2018-09-21T19:37:00.737Z,2.30
2018-09-21T19:39:39.853Z,2.00
2018-09-21T19:42:16.723Z,1.73
2018-09-21T19:44:51.636Z,1.87
2018-09-21T19:47:28.715Z,1.93
2018-09-21T19:50:03.862Z,1.90
2018-09-21T19:52:38.332Z,2.33
2018-09-21T19:55:12.660Z,2.00
2018-09-21T19:57:47.135Z,1.97
2018-09-21T20:00:21.959Z,2.20
2018-09-21T20:02:56.487Z,2.30
2018-09-21T20:05:36.848Z,2.10
2018-09-21T20:08:11.472Z,2.17
2018-09-21T20:10:52.656Z,2.30
2018-09-21T20:13:26.931Z,2.30
2018-09-21T20:16:01.269Z,2.20
2018-09-21T20:18:35.713Z,2.80
2018-09-21T20:21:14.977Z,2.40
2018-09-21T20:23:49.606Z,2.70
2018-09-21T20:26:24.669Z,2.40
2018-09-21T20:28:59.673Z,2.67
2018-09-21T20:31:43.724Z,2.43
2018-09-21T20:34:23.441Z,2.77
2018-09-21T20:36:58.595Z,2.60
2018-09-21T20:39:33.156Z,2.87
2018-09-21T20:42:08.247Z,3.03
2018-09-21T20:44:49.278Z,2.60
2018-09-21T20:47:24.178Z,2.60
2018-09-21T20:49:58.795Z,2.60
2018-09-21T20:52:33.655Z,2.83
2018-09-21T20:55:08.068Z,2.50
2018-09-21T20:57:42.712Z,3.03
2018-09-21T21:00:17.772Z,2.80
2018-09-21T21:02:52.424Z,2.77
2018-09-21T21:05:27.149Z,2.97
2018-09-21T21:08:02.701Z,2.80
2018-09-21T21:10:37.140Z,2.80
2018-09-21T21:13:11.513Z,2.93
2018-09-21T21:15:46.911Z,2.70
2018-09-21T21:18:21.667Z,2.77
2018-09-21T21:20:56.108Z,3.00
2018-09-21T21:23:31.560Z,3.20
2018-09-21T21:26:06.400Z,3.00
2018-09-21T21:28:41.191Z,3.33
2018-09-21T21:31:16.027Z,3.20
2018-09-21T21:33:50.949Z,3.00
2018-09-21T21:36:25.574Z,2.93
2018-09-21T21:38:59.976Z,3.17
2018-09-21T21:41:34.423Z,3.07
2018-09-21T21:44:08.874Z,3.00
2018-09-21T21:46:43.657Z,3.87
2018-09-21T21:49:18.015Z,3.60
2018-09-21T21:51:52.295Z,3.50
2018-09-21T21:54:26.786Z,3.47
2018-09-21T21:57:01.712Z,3.50
2018-09-21T21:59:36.198Z,3.30
2018-09-21T22:02:12.067Z,3.50
2018-09-21T22:04:46.350Z,3.80
2018-09-21T22:07:20.801Z,3.70
2018-09-21T22:09:55.396Z,3.73
2018-09-21T22:12:35.293Z,3.87
2018-09-21T22:15:18.479Z,3.67
2018-09-21T22:17:55.021Z,3.50
2018-09-21T22:20:29.888Z,3.70
2018-09-21T22:23:05.015Z,3.67
2018-09-21T22:25:39.397Z,3.50
2018-09-21T22:28:13.956Z,4.10
2018-09-21T22:30:48.278Z,3.90
2018-09-21T22:33:22.960Z,3.70
2018-09-21T22:35:57.324Z,3.57
2018-09-21T22:38:32.634Z,3.70
2018-09-21T22:41:07.840Z,3.90
2018-09-21T22:43:42.211Z,3.30
2018-09-21T22:46:17.122Z,3.70
2018-09-21T22:48:52.604Z,3.83
2018-09-21T22:51:27.027Z,3.73
2018-09-21T22:54:01.820Z,3.60
2018-09-21T22:56:36.754Z,3.33
2018-09-21T22:59:11.397Z,3.63
2018-09-21T23:01:46.708Z,3.73
2018-09-21T23:04:21.143Z,3.60
2018-09-21T23:06:56.109Z,3.70
2018-09-21T23:09:30.408Z,3.30
2018-09-21T23:12:05.139Z,3.70
2018-09-21T23:14:40.755Z,4.00
2018-09-21T23:17:15.560Z,3.43
2018-09-21T23:19:50.176Z,3.23
2018-09-21T23:22:24.752Z,3.40
2018-09-21T23:24:59.545Z,3.40
2018-09-21T23:27:34.275Z,3.40
2018-09-21T23:30:09.115Z,3.23
2018-09-21T23:32:43.556Z,3.10
2018-09-21T23:35:18.143Z,3.07
2018-09-21T23:37:52.613Z,2.80
2018-09-21T23:40:27.016Z,3.10
2018-09-21T23:43:01.427Z,2.83
2018-09-21T23:45:35.827Z,3.00
2018-09-21T23:48:10.323Z,3.07
2018-09-21T23:50:44.838Z,3.10
2018-09-21T23:53:19.344Z,2.83
2018-09-21T23:55:53.800Z,3.10
2018-09-21T23:58:28.200Z,3.30
